createdAt,value
2022-11-10T00:00:55.000Z,169
2022-11-10T00:02:12.000Z,170
2022-11-10T00:03:28.000Z,170
2022-11-10T00:04:44.000Z,169
2022-11-10T00:06:00.000Z,171
2022-11-10T00:07:17.000Z,173
2022-11-10T00:08:33.000Z,174
2022-11-10T00:09:49.000Z,174
2022-11-10T00:11:05.000Z,174
2022-11-10T00:12:22.000Z,175
2022-11-10T00:13:38.000Z,179
2022-11-10T00:14:53.000Z,179
2022-11-10T00:16:09.000Z,178
2022-11-10T00:17:26.000Z,181
2022-11-10T00:18:42.000Z,179
2022-11-10T00:19:58.000Z,181
2022-11-10T00:21:14.000Z,182
2022-11-10T00:22:30.000Z,185
2022-11-10T00:23:47.000Z,180
2022-11-10T00:25:03.000Z,184
2022-11-10T00:26:19.000Z,188
2022-11-10T00:27:35.000Z,185
2022-11-10T00:28:52.000Z,185
2022-11-10T00:30:08.000Z,187
2022-11-10T00:31:23.000Z,191
2022-11-10T00:32:39.000Z,188
2022-11-10T00:33:56.000Z,186
2022-11-10T00:35:12.000Z,188
2022-11-10T00:36:28.000Z,192
2022-11-10T00:37:44.000Z,190
2022-11-10T00:39:01.000Z,191
2022-11-10T00:40:17.000Z,190
2022-11-10T00:41:33.000Z,192
2022-11-10T00:42:49.000Z,195
2022-11-10T00:44:05.000Z,197
2022-11-10T00:45:22.000Z,197
2022-11-10T00:46:38.000Z,197
2022-11-10T00:47:53.000Z,197
2022-11-10T00:49:09.000Z,196
2022-11-10T00:50:26.000Z,198
2022-11-10T00:51:42.000Z,197
2022-11-10T00:52:58.000Z,194
2022-11-10T00:54:14.000Z,194
2022-11-10T00:55:31.000Z,189
2022-11-10T00:56:47.000Z,192
2022-11-10T00:58:03.000Z,196
2022-11-10T00:59:19.000Z,194
2022-11-10T01:00:36.000Z,186
2022-11-10T01:01:52.000Z,191
2022-11-10T01:03:08.000Z,195
2022-11-10T01:04:23.000Z,195
2022-11-10T01:05:39.000Z,194
2022-11-10T01:06:56.000Z,195
2022-11-10T01:08:12.000Z,195
2022-11-10T01:09:28.000Z,197
2022-11-10T01:10:44.000Z,197
2022-11-10T01:12:01.000Z,195
2022-11-10T01:13:17.000Z,194
2022-11-10T01:14:33.000Z,197
2022-11-10T01:15:49.000Z,198
2022-11-10T01:17:06.000Z,195
2022-11-10T01:18:22.000Z,193
2022-11-10T01:19:38.000Z,195
2022-11-10T01:20:53.000Z,198
2022-11-10T01:22:10.000Z,200
2022-11-10T01:23:26.000Z,203
2022-11-10T01:24:42.000Z,203
2022-11-10T01:25:58.000Z,201
2022-11-10T01:27:14.000Z,203
2022-11-10T01:28:31.000Z,200
2022-11-10T01:29:47.000Z,197
2022-11-10T01:31:03.000Z,198
2022-11-10T01:32:19.000Z,193
2022-11-10T01:33:36.000Z,191
2022-11-10T01:34:52.000Z,195
2022-11-10T01:36:08.000Z,190
2022-11-10T01:37:23.000Z,190
2022-11-10T01:38:40.000Z,194
2022-11-10T01:39:56.000Z,196
2022-11-10T01:41:12.000Z,195
2022-11-10T01:42:28.000Z,195
2022-11-10T01:43:44.000Z,198
2022-11-10T01:44:59.000Z,199
2022-11-10T01:46:14.000Z,197
2022-11-10T01:47:30.000Z,194
2022-11-10T01:48:47.000Z,198
2022-11-10T01:50:02.000Z,198
2022-11-10T01:51:18.000Z,206
2022-11-10T01:53:50.000Z,200
2022-11-10T01:55:07.000Z,198
2022-11-10T01:56:23.000Z,198
2022-11-10T01:57:39.000Z,193
2022-11-10T01:58:55.000Z,191
2022-11-10T02:00:12.000Z,193
2022-11-10T02:01:28.000Z,190
2022-11-10T02:02:44.000Z,190
2022-11-10T02:04:00.000Z,188
2022-11-10T02:05:17.000Z,192
2022-11-10T02:06:32.000Z,195
2022-11-10T02:07:48.000Z,198
2022-11-10T02:09:04.000Z,195
2022-11-10T02:10:21.000Z,195
2022-11-10T02:11:37.000Z,193
2022-11-10T02:12:53.000Z,196
2022-11-10T02:14:09.000Z,197
2022-11-10T02:15:25.000Z,197
2022-11-10T02:16:42.000Z,193
2022-11-10T02:17:58.000Z,187
2022-11-10T02:19:14.000Z,190
2022-11-10T02:20:30.000Z,189
2022-11-10T02:21:47.000Z,190
2022-11-10T02:23:02.000Z,193
2022-11-10T02:24:18.000Z,188
2022-11-10T02:25:34.000Z,188
2022-11-10T02:26:50.000Z,185
2022-11-10T02:28:05.000Z,181
2022-11-10T02:29:20.000Z,184
2022-11-10T02:30:35.000Z,185
2022-11-10T02:31:52.000Z,184
2022-11-10T02:33:08.000Z,182
2022-11-10T02:34:24.000Z,196
2022-11-10T02:35:40.000Z,200
2022-11-10T02:36:57.000Z,195
2022-11-10T02:38:13.000Z,189
2022-11-10T02:39:29.000Z,192
2022-11-10T02:40:45.000Z,192
2022-11-10T02:42:02.000Z,204
2022-11-10T02:43:18.000Z,202
2022-11-10T02:44:34.000Z,199
2022-11-10T02:45:50.000Z,195
2022-11-10T02:47:05.000Z,191
2022-11-10T02:48:22.000Z,197
2022-11-10T02:49:38.000Z,198
2022-11-10T02:50:54.000Z,197
2022-11-10T02:52:10.000Z,192
2022-11-10T02:53:27.000Z,194
2022-11-10T02:54:43.000Z,190
2022-11-10T02:55:58.000Z,179
2022-11-10T02:57:13.000Z,179
2022-11-10T02:58:30.000Z,180
2022-11-10T02:59:46.000Z,178
2022-11-10T03:01:01.000Z,184
2022-11-10T03:02:16.000Z,192
2022-11-10T03:03:33.000Z,196
2022-11-10T03:04:49.000Z,196
2022-11-10T03:06:05.000Z,194
2022-11-10T03:07:21.000Z,189
2022-11-10T03:08:38.000Z,193
2022-11-10T03:09:54.000Z,192
2022-11-10T03:11:10.000Z,194
2022-11-10T03:12:26.000Z,190
2022-11-10T03:13:42.000Z,190
2022-11-10T03:14:59.000Z,193
2022-11-10T03:16:15.000Z,188
2022-11-10T03:17:31.000Z,191
2022-11-10T03:18:46.000Z,192
2022-11-10T03:20:03.000Z,189
2022-11-10T03:21:19.000Z,193
2022-11-10T03:22:35.000Z,193
2022-11-10T03:23:51.000Z,193
2022-11-10T03:25:08.000Z,192
2022-11-10T03:26:24.000Z,192
2022-11-10T03:27:39.000Z,188
2022-11-10T03:28:54.000Z,186
2022-11-10T03:30:10.000Z,188
2022-11-10T03:31:25.000Z,186
2022-11-10T03:32:41.000Z,190
2022-11-10T03:33:57.000Z,193
2022-11-10T03:35:14.000Z,195
2022-11-10T03:36:29.000Z,197
2022-11-10T03:37:45.000Z,193
2022-11-10T03:39:01.000Z,191
2022-11-10T03:40:18.000Z,194
2022-11-10T03:41:34.000Z,196
2022-11-10T03:42:50.000Z,191
2022-11-10T03:44:06.000Z,182
2022-11-10T03:45:22.000Z,183
2022-11-10T03:46:39.000Z,184
2022-11-10T03:47:55.000Z,183
2022-11-10T03:49:11.000Z,183
2022-11-10T03:50:27.000Z,180
2022-11-10T03:51:44.000Z,176
2022-11-10T03:52:59.000Z,178
2022-11-10T03:54:15.000Z,179
2022-11-10T03:55:31.000Z,175
2022-11-10T03:56:48.000Z,178
2022-11-10T03:58:04.000Z,177
2022-11-10T03:59:20.000Z,178
2022-11-10T04:00:36.000Z,181
2022-11-10T04:01:52.000Z,178
2022-11-10T04:03:09.000Z,179
2022-11-10T04:04:25.000Z,181
2022-11-10T04:05:41.000Z,180
2022-11-10T04:06:57.000Z,178
2022-11-10T04:08:14.000Z,181
2022-11-10T04:09:29.000Z,179
2022-11-10T04:10:45.000Z,177
2022-11-10T04:12:01.000Z,178
2022-11-10T04:13:18.000Z,178
2022-11-10T04:14:34.000Z,181
2022-11-10T04:15:50.000Z,177
2022-11-10T04:17:06.000Z,176
2022-11-10T04:18:23.000Z,174
2022-11-10T04:19:39.000Z,177
2022-11-10T04:20:55.000Z,179
2022-11-10T04:22:11.000Z,177
2022-11-10T04:23:27.000Z,177
2022-11-10T04:24:44.000Z,180
2022-11-10T04:25:59.000Z,190
2022-11-10T04:27:15.000Z,190
2022-11-10T04:28:31.000Z,194
2022-11-10T04:29:48.000Z,196
2022-11-10T04:31:04.000Z,197
2022-11-10T04:32:20.000Z,194
2022-11-10T04:33:36.000Z,193
2022-11-10T04:34:53.000Z,194
2022-11-10T04:36:09.000Z,191
2022-11-10T04:37:25.000Z,193
2022-11-10T04:38:41.000Z,194
2022-11-10T04:39:58.000Z,191
2022-11-10T04:41:14.000Z,188
2022-11-10T04:42:29.000Z,187
2022-11-10T04:43:45.000Z,188
2022-11-10T04:45:01.000Z,191
2022-11-10T04:46:18.000Z,189
2022-11-10T04:47:34.000Z,186
2022-11-10T04:48:50.000Z,187
2022-11-10T04:50:06.000Z,186
2022-11-10T04:51:23.000Z,187
2022-11-10T04:52:39.000Z,186
2022-11-10T04:53:55.000Z,184
2022-11-10T04:55:11.000Z,185
2022-11-10T04:56:28.000Z,185
2022-11-10T04:57:44.000Z,186
2022-11-10T04:58:59.000Z,209
2022-11-10T05:00:15.000Z,277
2022-11-10T05:01:32.000Z,265
2022-11-10T05:02:48.000Z,266
2022-11-10T05:04:04.000Z,270
2022-11-10T05:05:20.000Z,269
2022-11-10T05:06:36.994Z,271
2022-11-10T05:07:53.000Z,271
2022-11-10T05:09:09.000Z,274
2022-11-10T05:10:25.000Z,271
2022-11-10T05:11:41.000Z,255
2022-11-10T05:12:58.000Z,255
2022-11-10T05:14:14.000Z,254
2022-11-10T05:15:29.000Z,253
2022-11-10T05:16:45.000Z,260
2022-11-10T05:18:02.000Z,258
2022-11-10T05:19:18.000Z,263
2022-11-10T05:20:34.000Z,257
2022-11-10T05:21:50.000Z,257
2022-11-10T05:23:07.000Z,258
2022-11-10T05:24:23.000Z,254
2022-11-10T05:25:39.000Z,256
2022-11-10T05:26:55.000Z,262
2022-11-10T05:28:11.000Z,261
2022-11-10T05:29:28.000Z,264
2022-11-10T05:30:44.000Z,270
2022-11-10T05:31:59.000Z,268
2022-11-10T05:33:15.000Z,260
2022-11-10T05:34:32.000Z,249
2022-11-10T05:35:48.000Z,249
2022-11-10T05:37:04.000Z,252
2022-11-10T05:38:20.000Z,252
2022-11-10T05:39:37.000Z,256
2022-11-10T05:40:53.000Z,255
2022-11-10T05:42:09.000Z,254
2022-11-10T05:43:25.000Z,253
2022-11-10T05:44:42.000Z,249
2022-11-10T05:45:58.000Z,250
2022-11-10T05:47:14.000Z,256
2022-11-10T05:48:29.000Z,256
2022-11-10T05:49:45.000Z,254
2022-11-10T05:51:02.000Z,254
2022-11-10T05:52:18.000Z,252
2022-11-10T05:53:34.000Z,249
2022-11-10T05:54:50.000Z,253
2022-11-10T05:56:07.000Z,252
2022-11-10T05:57:23.000Z,247
2022-11-10T05:58:39.000Z,247
2022-11-10T05:59:55.000Z,245
2022-11-10T06:01:12.000Z,246
2022-11-10T06:02:28.000Z,251
2022-11-10T06:03:44.000Z,248
2022-11-10T06:04:59.000Z,250
2022-11-10T06:06:16.000Z,250
2022-11-10T06:07:32.000Z,252
2022-11-10T06:08:48.000Z,253
2022-11-10T06:10:04.000Z,251
2022-11-10T06:11:20.000Z,246
2022-11-10T06:12:37.000Z,247
2022-11-10T06:13:53.000Z,248
2022-11-10T06:15:09.000Z,255
2022-11-10T06:16:25.000Z,261
2022-11-10T06:17:42.000Z,263
2022-11-10T06:20:14.000Z,9
2022-11-10T06:21:29.000Z,16
2022-11-10T06:22:46.000Z,19
2022-11-10T06:24:02.000Z,24
2022-11-10T06:26:34.000Z,26
2022-11-10T06:27:50.000Z,29
2022-11-10T06:29:05.000Z,35
2022-11-10T06:30:20.000Z,45
2022-11-10T06:31:35.000Z,63
2022-11-10T06:32:52.000Z,80
2022-11-10T06:34:08.000Z,93
2022-11-10T06:35:24.000Z,113
2022-11-10T06:36:40.000Z,132
2022-11-10T06:37:57.000Z,160
2022-11-10T06:39:13.000Z,169
2022-11-10T06:40:29.000Z,182
2022-11-10T06:41:45.000Z,190
2022-11-10T06:43:01.000Z,205
2022-11-10T06:44:18.000Z,223
2022-11-10T06:45:34.000Z,244
2022-11-10T06:46:50.000Z,265
2022-11-10T06:48:05.000Z,294
2022-11-10T06:49:22.000Z,328
2022-11-10T06:50:38.000Z,364
2022-11-10T06:51:54.000Z,390
2022-11-10T06:53:10.000Z,425
2022-11-10T06:54:27.000Z,464
2022-11-10T06:55:43.000Z,493
2022-11-10T06:58:15.000Z,584
2022-11-10T06:59:31.000Z,655
2022-11-10T07:00:48.000Z,718
2022-11-10T07:02:04.000Z,774
2022-11-10T07:03:20.000Z,824
2022-11-10T07:04:35.000Z,860
2022-11-10T07:05:52.000Z,897
2022-11-10T07:07:08.000Z,930
2022-11-10T07:08:24.000Z,964
2022-11-10T07:09:40.000Z,996
2022-11-10T07:10:57.000Z,1020
2022-11-10T07:12:13.000Z,1055
2022-11-10T07:13:29.000Z,1107
2022-11-10T07:14:45.000Z,1151
2022-11-10T07:16:02.000Z,1183
2022-11-10T07:17:18.000Z,1211
2022-11-10T07:18:34.000Z,1238
2022-11-10T07:19:50.000Z,1267
2022-11-10T07:21:06.000Z,1293
2022-11-10T07:22:22.000Z,1351
2022-11-10T07:23:38.000Z,1422
2022-11-10T07:24:54.000Z,1466
2022-11-10T07:26:10.000Z,1501
2022-11-10T07:27:27.000Z,1531
2022-11-10T07:28:43.000Z,1562
2022-11-10T07:29:59.000Z,1590
2022-11-10T07:31:15.000Z,1622
2022-11-10T07:32:32.000Z,1646
2022-11-10T07:33:48.000Z,1672
2022-11-10T07:35:04.000Z,1700
2022-11-10T07:36:20.000Z,1731
2022-11-10T07:37:36.000Z,1754
2022-11-10T07:38:52.000Z,1783
2022-11-10T07:40:08.000Z,1804
2022-11-10T07:41:24.000Z,1827
2022-11-10T07:42:40.000Z,1848
2022-11-10T07:43:57.000Z,1869
2022-11-10T07:45:13.000Z,1898
2022-11-10T07:46:29.000Z,1924
2022-11-10T07:49:02.000Z,1976
2022-11-10T07:50:18.000Z,2004
2022-11-10T07:51:33.000Z,2039
2022-11-10T07:52:49.000Z,2068
2022-11-10T07:54:06.000Z,2105
2022-11-10T07:55:22.000Z,2149
2022-11-10T07:56:38.000Z,2203
2022-11-10T07:57:54.000Z,2201
2022-11-10T07:59:11.000Z,2168
2022-11-10T08:00:27.000Z,2150
2022-11-10T08:01:43.000Z,2148
2022-11-10T08:02:59.000Z,2165
2022-11-10T08:04:16.000Z,2195
2022-11-10T08:05:32.000Z,2230
2022-11-10T08:06:48.000Z,2257
2022-11-10T08:08:03.000Z,2273
2022-11-10T08:09:19.000Z,2301
2022-11-10T08:10:36.000Z,2322
2022-11-10T08:11:52.000Z,2335
2022-11-10T08:14:24.000Z,2364
2022-11-10T08:15:41.000Z,2357
2022-11-10T08:16:57.000Z,2306
2022-11-10T08:18:13.000Z,2369
2022-11-10T08:19:29.000Z,2450
2022-11-10T08:20:46.000Z,2478
2022-11-10T08:22:02.000Z,2457
2022-11-10T08:23:18.000Z,2538
2022-11-10T08:24:33.000Z,2568
2022-11-10T08:27:06.000Z,2534
2022-11-10T08:28:22.000Z,2466
2022-11-10T08:29:38.000Z,2483
2022-11-10T08:30:54.000Z,2527
2022-11-10T08:32:11.000Z,2533
2022-11-10T08:33:27.000Z,2517
2022-11-10T08:34:43.000Z,2476
2022-11-10T08:35:59.000Z,2506
2022-11-10T08:37:16.000Z,2549
2022-11-10T08:38:32.000Z,2524
2022-11-10T08:39:48.000Z,2533
2022-11-10T08:41:03.000Z,2588
2022-11-10T08:42:20.000Z,2606
2022-11-10T08:43:36.000Z,2556
2022-11-10T08:44:52.000Z,2541
2022-11-10T08:46:08.000Z,2547
2022-11-10T08:47:24.000Z,2540
2022-11-10T08:48:41.000Z,2536
2022-11-10T08:52:29.000Z,2620
2022-11-10T08:53:45.000Z,2530
2022-11-10T08:55:00.000Z,2506
2022-11-10T08:56:16.000Z,2568
2022-11-10T08:57:32.000Z,2614
2022-11-10T08:58:49.000Z,2636
2022-11-10T09:00:05.000Z,2615
2022-11-10T09:01:21.000Z,2619
2022-11-10T09:02:37.000Z,2632
2022-11-10T09:03:54.000Z,2635
2022-11-10T09:05:10.000Z,2644
2022-11-10T09:06:26.000Z,2662
2022-11-10T09:07:41.000Z,2667
2022-11-10T09:08:57.000Z,2684
2022-11-10T09:10:13.000Z,2697
2022-11-10T09:11:29.000Z,2702
2022-11-10T09:12:45.000Z,2712
2022-11-10T09:14:02.000Z,2740
2022-11-10T09:15:18.000Z,2753
2022-11-10T09:16:34.000Z,2734
2022-11-10T09:17:50.000Z,2744
2022-11-10T09:19:06.000Z,2752
2022-11-10T09:20:23.000Z,2762
2022-11-10T09:21:39.000Z,2768
2022-11-10T09:22:55.000Z,2776
2022-11-10T09:24:11.000Z,2785
2022-11-10T09:25:27.000Z,2814
2022-11-10T09:26:43.000Z,2837
2022-11-10T09:27:59.000Z,2865
2022-11-10T09:29:15.000Z,2889
2022-11-10T09:30:32.000Z,2899
2022-11-10T09:31:48.000Z,2892
2022-11-10T09:33:04.000Z,2872
2022-11-10T09:34:20.000Z,2867
2022-11-10T09:35:36.000Z,2855
2022-11-10T09:36:53.000Z,2862
2022-11-10T09:38:09.000Z,2875
2022-11-10T09:39:25.000Z,2885
2022-11-10T09:40:41.000Z,2905
2022-11-10T09:43:13.000Z,2960
2022-11-10T09:44:29.000Z,2992
2022-11-10T09:45:45.000Z,3045
2022-11-10T09:47:02.000Z,3086
2022-11-10T09:48:18.000Z,3116
2022-11-10T09:49:34.000Z,3142
2022-11-10T09:50:50.000Z,3168
2022-11-10T09:52:07.000Z,3192
2022-11-10T09:53:23.000Z,3204
2022-11-10T09:54:39.000Z,3186
2022-11-10T09:55:55.000Z,3160
2022-11-10T09:57:11.000Z,3185
2022-11-10T09:58:27.000Z,3202
2022-11-10T09:59:43.000Z,3236
2022-11-10T10:00:59.000Z,3236
2022-11-10T10:02:15.000Z,3119
2022-11-10T10:03:32.000Z,3081
2022-11-10T10:04:48.000Z,3160
2022-11-10T10:06:04.000Z,3320
2022-11-10T10:07:20.000Z,3241
2022-11-10T10:09:53.000Z,2963
2022-11-10T10:11:09.000Z,2975
2022-11-10T10:12:25.000Z,3015
2022-11-10T10:13:42.000Z,3019
2022-11-10T10:14:57.000Z,3035
2022-11-10T10:16:13.000Z,3085
2022-11-10T10:17:29.000Z,3144
2022-11-10T10:18:45.000Z,3316
2022-11-10T10:21:18.000Z,3393
2022-11-10T10:22:34.000Z,3223
2022-11-10T10:23:50.000Z,2931
2022-11-10T10:25:07.000Z,2899
2022-11-10T10:26:23.000Z,3117
2022-11-10T10:27:39.000Z,3247
2022-11-10T10:28:55.000Z,3167
2022-11-10T10:30:12.000Z,2902
2022-11-10T10:31:27.000Z,2991
2022-11-10T10:33:59.000Z,3152
2022-11-10T10:35:15.000Z,3076
2022-11-10T10:36:30.000Z,3020
2022-11-10T10:37:46.000Z,2909
2022-11-10T10:39:02.000Z,2914
2022-11-10T10:40:19.000Z,3149
2022-11-10T10:41:35.000Z,3073
2022-11-10T10:42:51.000Z,3042
2022-11-10T10:44:07.000Z,3049
2022-11-10T10:46:40.000Z,3068
2022-11-10T10:47:56.000Z,3167
2022-11-10T10:49:12.000Z,3142
2022-11-10T10:50:28.000Z,2991
2022-11-10T10:51:45.000Z,3123
2022-11-10T10:53:00.000Z,3223
2022-11-10T10:54:16.000Z,3170
2022-11-10T10:55:32.000Z,3045
2022-11-10T10:56:49.000Z,2994
2022-11-10T10:58:05.000Z,2995
2022-11-10T10:59:21.000Z,2991
2022-11-10T11:00:37.000Z,2987
2022-11-10T11:01:53.000Z,3005
2022-11-10T11:03:09.000Z,3015
2022-11-10T11:04:24.000Z,2997
2022-11-10T11:05:40.000Z,3003
2022-11-10T11:06:56.000Z,3077
2022-11-10T11:08:13.000Z,3176
2022-11-10T11:09:29.000Z,3113
2022-11-10T11:10:45.000Z,3015
2022-11-10T11:12:01.000Z,3034
2022-11-10T11:13:18.000Z,3109
2022-11-10T11:14:34.000Z,3147
2022-11-10T11:15:50.000Z,3121
2022-11-10T11:17:06.000Z,3082
2022-11-10T11:18:23.000Z,3093
2022-11-10T11:19:39.000Z,3107
2022-11-10T11:20:55.000Z,3076
2022-11-10T11:22:10.000Z,3052
2022-11-10T11:23:27.000Z,3054
2022-11-10T11:24:43.000Z,3077
2022-11-10T11:25:59.000Z,3099
2022-11-10T11:27:15.000Z,3186
2022-11-10T11:28:31.000Z,3234
2022-11-10T11:29:47.000Z,3151
2022-11-10T11:31:02.000Z,3160
2022-11-10T11:32:17.000Z,3223
2022-11-10T11:33:33.000Z,3329
2022-11-10T11:34:49.000Z,3441
2022-11-10T11:37:21.000Z,3615
2022-11-10T11:38:37.000Z,4890
2022-11-10T11:39:54.000Z,4370
2022-11-10T11:41:10.000Z,4399
2022-11-10T11:42:26.000Z,4149
2022-11-10T11:43:42.000Z,4324
2022-11-10T11:44:59.000Z,4455
2022-11-10T11:46:15.000Z,4833
2022-11-10T11:47:31.000Z,5988
2022-11-10T11:48:47.000Z,4975
2022-11-10T11:50:04.000Z,4203
2022-11-10T11:51:19.000Z,5185
2022-11-10T11:52:35.000Z,4774
2022-11-10T11:53:51.000Z,4058
2022-11-10T11:55:07.000Z,5679
2022-11-10T11:56:24.000Z,4300
2022-11-10T11:57:40.000Z,3651
2022-11-10T11:58:56.000Z,3858
2022-11-10T12:00:12.000Z,3900
2022-11-10T12:02:45.000Z,3544
2022-11-10T12:04:01.000Z,3338
2022-11-10T12:05:17.000Z,3371
2022-11-10T12:06:33.000Z,3469
2022-11-10T12:07:49.000Z,3664
2022-11-10T12:09:05.000Z,3775
2022-11-10T12:10:21.000Z,3759
2022-11-10T12:11:38.000Z,4164
2022-11-10T12:12:54.000Z,4149
2022-11-10T12:14:10.000Z,4211
2022-11-10T12:15:26.000Z,4155
2022-11-10T12:16:42.000Z,4158
2022-11-10T12:17:59.000Z,5052
2022-11-10T12:19:15.000Z,4704
2022-11-10T12:20:31.000Z,4088
2022-11-10T12:21:47.000Z,4953
2022-11-10T12:24:19.000Z,5029
2022-11-10T12:25:35.000Z,3637
2022-11-10T12:28:08.000Z,3303
2022-11-10T12:29:23.000Z,4548
2022-11-10T12:30:38.000Z,4245
2022-11-10T12:31:54.000Z,4221
2022-11-10T12:33:11.000Z,4764
2022-11-10T12:34:27.000Z,3580
2022-11-10T12:35:43.000Z,5539
2022-11-10T12:36:59.000Z,4148
2022-11-10T12:38:16.000Z,4327
2022-11-10T12:39:32.000Z,4384
2022-11-10T12:40:48.000Z,4225
2022-11-10T12:42:04.000Z,4129
2022-11-10T12:43:19.000Z,4281
2022-11-10T12:44:35.000Z,4482
2022-11-10T12:45:51.000Z,3959
2022-11-10T12:47:07.000Z,3652
2022-11-10T12:48:23.000Z,3737
2022-11-10T12:49:40.000Z,3838
2022-11-10T12:50:56.000Z,4066
2022-11-10T12:52:12.000Z,3826
2022-11-10T12:53:28.000Z,3126
2022-11-10T12:54:45.000Z,3159
2022-11-10T12:56:01.000Z,3496
2022-11-10T12:57:17.000Z,3949
2022-11-10T12:58:33.000Z,4130
2022-11-10T12:59:50.000Z,3977
2022-11-10T13:01:05.000Z,4036
2022-11-10T13:02:21.000Z,4101
2022-11-10T13:03:37.000Z,4264
2022-11-10T13:04:53.000Z,5481
2022-11-10T13:06:10.000Z,4849
2022-11-10T13:07:26.000Z,4426
2022-11-10T13:08:42.000Z,4330
2022-11-10T13:09:58.000Z,3993
2022-11-10T13:11:15.000Z,4128
2022-11-10T13:12:31.000Z,4394
2022-11-10T13:13:47.000Z,4626
2022-11-10T13:15:03.000Z,4782
2022-11-10T13:16:20.000Z,4698
2022-11-10T13:20:07.000Z,3266
2022-11-10T13:21:24.000Z,3305
2022-11-10T13:22:40.000Z,3384
2022-11-10T13:23:56.000Z,3587
2022-11-10T13:25:12.000Z,3662
2022-11-10T13:26:28.000Z,4795
2022-11-10T13:27:45.000Z,4189
2022-11-10T13:29:01.000Z,5258
2022-11-10T13:30:17.000Z,4879
2022-11-10T13:31:33.000Z,4576
2022-11-10T13:32:50.000Z,4914
2022-11-10T13:34:05.000Z,4292
2022-11-10T13:35:21.000Z,5173
2022-11-10T13:36:37.000Z,5285
2022-11-10T13:37:54.000Z,4283
2022-11-10T13:39:10.000Z,3627
2022-11-10T13:40:26.000Z,3772
2022-11-10T13:41:42.000Z,5182
2022-11-10T13:44:15.000Z,3828
2022-11-10T13:45:30.000Z,3551
2022-11-10T13:46:45.000Z,3279
2022-11-10T13:48:02.000Z,3001
2022-11-10T13:49:18.000Z,2842
2022-11-10T13:50:34.000Z,2705
2022-11-10T13:51:50.000Z,2597
2022-11-10T13:53:06.000Z,2536
2022-11-10T13:54:23.000Z,2570
2022-11-10T13:55:39.000Z,2591
2022-11-10T13:56:55.000Z,2567
2022-11-10T13:58:11.000Z,2527
2022-11-10T13:59:27.000Z,2482
2022-11-10T14:00:42.000Z,2457
2022-11-10T14:01:58.000Z,2461
2022-11-10T14:03:14.000Z,2477
2022-11-10T14:04:31.000Z,2485
2022-11-10T14:05:47.000Z,2519
2022-11-10T14:07:03.000Z,2533
2022-11-10T14:09:36.000Z,2428
2022-11-10T14:10:52.000Z,2387
2022-11-10T14:12:08.000Z,2345
2022-11-10T14:13:24.000Z,2294
2022-11-10T14:14:40.000Z,2264
2022-11-10T14:15:57.000Z,2265
2022-11-10T14:17:12.000Z,2223
2022-11-10T14:18:28.000Z,2201
2022-11-10T14:19:44.000Z,2292
2022-11-10T14:22:17.000Z,2328
2022-11-10T14:23:32.000Z,2308
2022-11-10T14:24:47.000Z,2275
2022-11-10T14:26:04.000Z,2224
2022-11-10T14:27:20.000Z,2119
2022-11-10T14:28:36.000Z,1987
2022-11-10T14:29:52.000Z,1860
2022-11-10T14:31:09.000Z,1783
2022-11-10T14:32:25.000Z,1775
2022-11-10T14:33:41.000Z,1777
2022-11-10T14:34:57.000Z,1752
2022-11-10T14:36:14.000Z,1720
2022-11-10T14:37:29.000Z,1728
2022-11-10T14:38:44.000Z,1768
2022-11-10T14:40:00.000Z,1818
2022-11-10T14:41:16.000Z,1847
2022-11-10T14:42:33.000Z,1815
2022-11-10T14:43:49.000Z,1760
2022-11-10T14:45:05.000Z,1717
2022-11-10T14:48:54.000Z,1633
2022-11-10T14:50:10.000Z,1633
2022-11-10T14:51:26.000Z,1626
2022-11-10T14:52:43.000Z,1608
2022-11-10T14:53:58.000Z,1578
2022-11-10T14:55:14.000Z,1547
2022-11-10T14:56:29.000Z,1504
2022-11-10T14:57:46.000Z,1458
2022-11-10T14:59:02.000Z,1404
2022-11-10T15:00:18.000Z,1345
2022-11-10T15:01:34.000Z,1269
2022-11-10T15:02:50.000Z,1201
2022-11-10T15:04:07.000Z,1153
2022-11-10T15:05:23.000Z,1119
2022-11-10T15:06:39.000Z,1087
2022-11-10T15:07:54.000Z,1058
2022-11-10T15:09:10.000Z,1032
2022-11-10T15:10:26.000Z,1009
2022-11-10T15:12:58.000Z,966
2022-11-10T15:14:15.000Z,939
2022-11-10T15:15:31.000Z,913
2022-11-10T15:16:47.000Z,894
2022-11-10T15:18:03.000Z,882
2022-11-10T15:19:20.000Z,873
2022-11-10T15:20:36.000Z,862
2022-11-10T15:21:52.000Z,844
2022-11-10T15:23:08.000Z,824
2022-11-10T15:24:25.000Z,804
2022-11-10T15:25:41.000Z,778
2022-11-10T15:26:57.000Z,742
2022-11-10T15:28:12.000Z,702
2022-11-10T15:29:28.000Z,661
2022-11-10T15:30:45.000Z,611
2022-11-10T15:32:01.000Z,560
2022-11-10T15:33:17.000Z,516
2022-11-10T15:34:33.000Z,472
2022-11-10T15:35:50.000Z,433
2022-11-10T15:38:22.000Z,370
2022-11-10T15:39:38.000Z,345
2022-11-10T15:40:55.000Z,320
2022-11-10T15:42:11.000Z,297
2022-11-10T15:43:27.000Z,273
2022-11-10T15:44:42.000Z,252
2022-11-10T15:45:59.000Z,233
2022-11-10T15:47:15.000Z,216
2022-11-10T15:48:31.000Z,199
2022-11-10T15:49:47.000Z,184
2022-11-10T15:51:03.000Z,166
2022-11-10T15:52:20.000Z,151
2022-11-10T15:53:36.000Z,135
2022-11-10T15:54:52.000Z,121
2022-11-10T15:56:08.000Z,109
2022-11-10T15:57:25.000Z,95
2022-11-10T15:58:41.000Z,83
2022-11-10T15:59:57.591Z,75
2022-11-10T16:01:12.000Z,64
2022-11-10T16:02:29.000Z,55
2022-11-10T16:03:45.000Z,47
2022-11-10T16:05:01.000Z,40
2022-11-10T16:06:17.000Z,35
2022-11-10T16:07:34.000Z,12
2022-11-10T16:08:50.000Z,198
2022-11-10T16:10:06.000Z,190
2022-11-10T16:11:22.000Z,186
2022-11-10T16:12:38.000Z,183
2022-11-10T16:13:55.000Z,178
2022-11-10T16:15:11.000Z,174
2022-11-10T16:16:27.000Z,172
2022-11-10T16:17:42.000Z,170
2022-11-10T16:18:59.000Z,171
2022-11-10T16:20:15.000Z,172
2022-11-10T16:21:30.000Z,172
2022-11-10T16:22:46.000Z,173
2022-11-10T16:24:03.000Z,169
2022-11-10T16:25:19.000Z,170
2022-11-10T16:26:35.000Z,165
2022-11-10T16:27:51.000Z,167
2022-11-10T16:30:24.000Z,166
2022-11-10T16:31:40.000Z,169
2022-11-10T16:32:56.000Z,168
2022-11-10T16:34:12.000Z,169
2022-11-10T16:35:29.000Z,168
2022-11-10T16:36:45.000Z,169
2022-11-10T16:38:00.000Z,167
2022-11-10T16:39:16.000Z,168
2022-11-10T16:40:33.000Z,165
2022-11-10T16:41:49.000Z,168
2022-11-10T16:43:05.000Z,165
2022-11-10T16:44:21.000Z,168
2022-11-10T16:45:38.000Z,168
2022-11-10T16:46:54.000Z,166
2022-11-10T16:48:10.000Z,167
2022-11-10T16:49:26.000Z,166
2022-11-10T16:50:43.000Z,167
2022-11-10T16:51:59.000Z,167
2022-11-10T16:53:15.000Z,167
2022-11-10T16:54:31.000Z,165
2022-11-10T16:55:46.000Z,167
2022-11-10T16:57:03.000Z,164
2022-11-10T16:58:19.000Z,165
2022-11-10T16:59:35.000Z,167
2022-11-10T17:00:51.000Z,168
2022-11-10T17:02:08.000Z,167
2022-11-10T17:03:24.000Z,166
2022-11-10T17:04:40.000Z,166
2022-11-10T17:07:13.000Z,167
2022-11-10T17:08:29.000Z,165
2022-11-10T17:09:45.000Z,167
2022-11-10T17:11:01.000Z,168
2022-11-10T17:12:18.000Z,166
2022-11-10T17:13:33.000Z,168
2022-11-10T17:14:49.000Z,166
2022-11-10T17:16:05.000Z,168
2022-11-10T17:17:21.000Z,168
2022-11-10T17:18:38.000Z,167
2022-11-10T17:19:54.000Z,167
2022-11-10T17:21:10.000Z,167
2022-11-10T17:22:26.000Z,168
2022-11-10T17:23:43.000Z,165
2022-11-10T17:24:59.000Z,164
2022-11-10T17:26:15.000Z,165
2022-11-10T17:27:31.000Z,168
2022-11-10T17:28:48.000Z,167
2022-11-10T17:30:03.000Z,165
2022-11-10T17:31:19.000Z,168
2022-11-10T17:32:35.000Z,167
2022-11-10T17:33:52.000Z,168
2022-11-10T17:35:08.000Z,169
2022-11-10T17:36:24.000Z,166
2022-11-10T17:37:40.000Z,164
2022-11-10T17:38:56.000Z,164
2022-11-10T17:40:13.000Z,166
2022-11-10T17:41:29.000Z,167
2022-11-10T17:42:45.000Z,164
2022-11-10T17:44:01.000Z,168
2022-11-10T17:45:18.000Z,169
2022-11-10T17:46:33.000Z,166
2022-11-10T17:47:49.000Z,165
2022-11-10T17:49:05.000Z,165
2022-11-10T17:50:22.000Z,165